Hlavní strana
METAR-TAF:

METAR-TAF

Letiště :

Letiště Madeira

Funchal, Madeira, Portugalsko

zeměpisná šířka: 32-41-52N, zeměpisná délka: 016-46-28W, výška: 59 m

Aktuální stav počasí

Zpráva byla vytvořena před 27 minutami, v 22:00 UTC
Severní vítr 10 kt, proměnlivý mezi severoseverozápadním a severovýchodním
Teplota 18°C
Vlhkost vzduchu 59%
Tlak 1022 hPa
Viditelnost 10 km a více
Polojasno ve výšce 1500 ft

METAR: LPMA 132200Z 01010KT 330V040 9999 SCT015 18/10 Q1022

Čas: 22:27 (22:27 UTC)

Předpověď počasí

Zpráva byla vytvořena před 5 hodinami a 27 minutami, v 17:00 UTC
Předpověď platná od 13 v 18 UTC do 14 v 18 UTC
Severoseverovýchodní vítr 12 kt
Viditelnost 10 km a více
Polojasno ve výšce 1500 ft
Změna
od 13 v 21 UTC do 13 v 24 UTC
vítr z různých směrů 5 kt

TAF: LPMA 131700Z 1318/1418 02012KT 9999 SCT015 BECMG 1321/1324 VRB05KT

Stav a předpovědi počasí z více než 4 000 letišť (zprávy METAR a TAF).

Červené a žluté tečky na mapě představují dostupné meteorologické stanice.

Když kurzor umístíte na tečku, zobrazí se název stanice.

Pak kliknutím zobrazíte stav a předpověď počasí.

Chcete-li změnit mapu, kliknutím na zelené tlačítko se znaménkem +mapu přiblížíte, kliknutím na zelené tlačítko se znaménkem – mapu oddálíte a kliknutím na zelené šipky přejdete na sousední mapy.


METAR-TAF: